createdAt,value
2023-03-13T00:00:50.667Z,100103.31
2023-03-13T00:03:17.286Z,100098.97
2023-03-13T00:05:43.809Z,100094.38
2023-03-13T00:08:10.308Z,100074.25
2023-03-13T00:10:38.192Z,100078.91
2023-03-13T00:13:05.302Z,100074.31
2023-03-13T00:15:32.030Z,100076.50
2023-03-13T00:17:58.584Z,100068.06
2023-03-13T00:20:25.397Z,100059.09
2023-03-13T00:22:51.969Z,100052.03
2023-03-13T00:25:18.545Z,100039.50
2023-03-13T00:27:44.920Z,100029.44
2023-03-13T00:30:11.892Z,100021.59
2023-03-13T00:32:42.828Z,100011.53
2023-03-13T00:35:09.433Z,100008.56
2023-03-13T00:37:35.898Z,100003.94
2023-03-13T00:40:02.397Z,99990.34
2023-03-13T00:42:28.836Z,100000.38
2023-03-13T00:44:55.292Z,99997.66
2023-03-13T00:47:21.648Z,99995.53
2023-03-13T00:49:47.972Z,99995.75
2023-03-13T00:52:14.419Z,99994.41
2023-03-13T00:54:41.495Z,99977.81
2023-03-13T00:57:07.876Z,99972.94
2023-03-13T00:59:34.460Z,99968.59
2023-03-13T01:02:00.997Z,99967.75
2023-03-13T01:04:27.409Z,99960.97
2023-03-13T01:06:53.790Z,99958.00
2023-03-13T01:09:20.206Z,99956.91
2023-03-13T01:11:46.902Z,99955.25
2023-03-13T01:14:18.878Z,99952.00
2023-03-13T01:16:45.428Z,99947.09
2023-03-13T01:19:14.668Z,99951.19
2023-03-13T01:21:42.553Z,99937.59
2023-03-13T01:24:09.626Z,99933.22
2023-03-13T01:26:36.240Z,99931.88
2023-03-13T01:29:03.287Z,99931.56
2023-03-13T01:31:33.042Z,99929.13
2023-03-13T01:34:01.658Z,99928.03
2023-03-13T01:36:28.406Z,99915.00
2023-03-13T01:38:57.540Z,99909.56
2023-03-13T01:41:25.223Z,99906.31
2023-03-13T01:43:52.094Z,99899.78
2023-03-13T01:46:36.781Z,99901.44
2023-03-13T01:49:07.822Z,99884.03
2023-03-13T01:51:53.627Z,99880.22
2023-03-13T01:54:29.968Z,99879.13
2023-03-13T01:57:21.109Z,99875.88
2023-03-13T01:59:53.890Z,99866.66
2023-03-13T02:02:22.349Z,99854.16
2023-03-13T02:04:54.642Z,99847.38
2023-03-13T02:07:28.074Z,99846.00
2023-03-13T02:09:56.620Z,99827.00
2023-03-13T02:12:34.729Z,99823.75
2023-03-13T02:15:08.023Z,99807.19
2023-03-13T02:17:36.540Z,99806.88
2023-03-13T02:20:04.576Z,99803.63
2023-03-13T02:22:57.972Z,99794.94
2023-03-13T02:25:24.368Z,99792.19
2023-03-13T02:27:55.063Z,99789.47
2023-03-13T02:30:21.964Z,99778.28
2023-03-13T02:32:48.740Z,99779.09
2023-03-13T02:35:19.514Z,99764.44
2023-03-13T02:37:51.060Z,99764.97
2023-03-13T02:40:22.705Z,99770.94
2023-03-13T02:42:50.757Z,99764.38
2023-03-13T02:45:18.176Z,99760.59
2023-03-13T02:47:44.579Z,99767.69
2023-03-13T02:50:12.637Z,99761.19
2023-03-13T02:52:46.870Z,99757.66
2023-03-13T02:55:18.209Z,99753.31
2023-03-13T02:57:45.106Z,99756.31
2023-03-13T03:00:12.756Z,99751.94
2023-03-13T03:02:39.708Z,99754.41
2023-03-13T03:05:06.541Z,99751.69
2023-03-13T03:07:32.884Z,99745.44
2023-03-13T03:09:59.365Z,99741.38
2023-03-13T03:12:25.749Z,99739.47
2023-03-13T03:14:52.208Z,99726.72
2023-03-13T03:17:18.761Z,99722.41
2023-03-13T03:19:45.259Z,99712.34
2023-03-13T03:22:11.650Z,99722.41
2023-03-13T03:24:38.200Z,99710.16
2023-03-13T03:27:04.875Z,99716.69
2023-03-13T03:29:31.436Z,99707.47
2023-03-13T03:31:57.884Z,99725.13
2023-03-13T03:34:24.455Z,99714.50
2023-03-13T03:36:50.916Z,99712.91
2023-03-13T03:39:17.401Z,99716.69
2023-03-13T03:41:43.744Z,99718.88
2023-03-13T03:44:10.127Z,99708.56
2023-03-13T03:46:36.528Z,99709.66
2023-03-13T03:49:03.111Z,99698.78
2023-03-13T03:51:29.539Z,99700.13
2023-03-13T03:53:55.904Z,99701.75
2023-03-13T03:56:22.389Z,99691.44
2023-03-13T03:58:48.769Z,99684.34
2023-03-13T04:01:15.255Z,99679.72
2023-03-13T04:03:41.712Z,99691.69
2023-03-13T04:06:09.295Z,99682.19
2023-03-13T04:08:36.336Z,99671.03
2023-03-13T04:11:02.960Z,99678.94
2023-03-13T04:13:29.391Z,99672.94
2023-03-13T04:15:55.777Z,99671.00
2023-03-13T04:18:22.182Z,99677.53
2023-03-13T04:20:48.612Z,99667.16
2023-03-13T04:23:15.060Z,99664.50
2023-03-13T04:25:41.500Z,99660.94
2023-03-13T04:28:08.848Z,99652.50
2023-03-13T04:30:35.337Z,99656.81
2023-03-13T04:33:01.844Z,99656.00
2023-03-13T04:35:28.397Z,99656.00
2023-03-13T04:37:54.837Z,99648.09
2023-03-13T04:40:21.250Z,99656.75
2023-03-13T04:42:47.626Z,99654.84
2023-03-13T04:45:14.086Z,99645.03
2023-03-13T04:47:40.699Z,99642.56
2023-03-13T04:50:07.619Z,99639.25
2023-03-13T04:52:34.064Z,99637.84
2023-03-13T04:55:00.662Z,99642.09
2023-03-13T04:57:27.143Z,99641.75
2023-03-13T04:59:53.480Z,99616.09
2023-03-13T05:02:19.888Z,99610.81
2023-03-13T05:04:46.332Z,99611.03
2023-03-13T05:07:12.726Z,99614.53
2023-03-13T05:09:39.100Z,99616.38
2023-03-13T05:12:05.866Z,99603.22
2023-03-13T05:14:32.209Z,99614.88
2023-03-13T05:16:58.514Z,99600.97
2023-03-13T05:19:24.925Z,99615.06
2023-03-13T05:21:51.496Z,99603.03
2023-03-13T05:24:18.006Z,99595.94
2023-03-13T05:26:44.413Z,99603.50
2023-03-13T05:29:10.875Z,99599.66
2023-03-13T05:31:37.317Z,99608.34
2023-03-13T05:34:03.760Z,99598.50
2023-03-13T05:36:30.277Z,99588.72
2023-03-13T05:38:57.005Z,99602.03
2023-03-13T05:41:23.426Z,99588.41
2023-03-13T05:43:49.876Z,99597.94
2023-03-13T05:46:16.286Z,99601.16
2023-03-13T05:48:42.760Z,99597.28
2023-03-13T05:51:09.182Z,99591.84
2023-03-13T05:53:35.550Z,99580.94
2023-03-13T05:56:01.964Z,99573.56
2023-03-13T05:58:28.460Z,99555.81
2023-03-13T06:00:54.850Z,99555.25
2023-03-13T06:03:23.006Z,99567.16
2023-03-13T06:05:49.625Z,99567.03
2023-03-13T06:08:15.987Z,99585.81
2023-03-13T06:10:42.438Z,99585.72
2023-03-13T06:13:19.528Z,99585.16
2023-03-13T06:15:57.474Z,99579.25
2023-03-13T06:18:24.865Z,99566.66
2023-03-13T06:20:57.452Z,99593.31
2023-03-13T06:23:23.892Z,99605.56
2023-03-13T06:25:51.328Z,99595.97
2023-03-13T06:28:17.717Z,99611.78
2023-03-13T06:30:44.453Z,99608.72
2023-03-13T06:33:11.468Z,99611.38
2023-03-13T06:35:55.342Z,99623.56
2023-03-13T06:38:22.524Z,99613.66
2023-03-13T06:40:48.900Z,99609.81
2023-03-13T06:43:15.271Z,99613.38
2023-03-13T06:45:41.659Z,99619.34
2023-03-13T06:48:08.198Z,99612.47
2023-03-13T06:50:38.584Z,99617.88
2023-03-13T06:53:05.474Z,99620.00
2023-03-13T06:55:32.373Z,99619.47
2023-03-13T06:57:59.179Z,99630.91
2023-03-13T07:00:25.540Z,99627.88
2023-03-13T07:02:52.008Z,99624.94
2023-03-13T07:05:18.383Z,99628.19
2023-03-13T07:07:44.733Z,99631.53
2023-03-13T07:10:11.738Z,99629.31
2023-03-13T07:12:38.157Z,99631.13
2023-03-13T07:15:05.938Z,99635.50
2023-03-13T07:17:32.531Z,99635.19
2023-03-13T07:19:59.065Z,99645.56
2023-03-13T07:22:25.444Z,99624.25
2023-03-13T07:24:52.001Z,99632.97
2023-03-13T07:27:21.112Z,99635.19
2023-03-13T07:29:47.616Z,99645.50
2023-03-13T07:32:13.995Z,99648.47
2023-03-13T07:34:40.414Z,99652.00
2023-03-13T07:37:06.759Z,99642.69
2023-03-13T07:39:33.107Z,99645.63
2023-03-13T07:41:59.416Z,99649.72
2023-03-13T07:44:25.758Z,99641.19
2023-03-13T07:46:52.133Z,99630.59
2023-03-13T07:49:18.484Z,99620.72
2023-03-13T07:51:47.593Z,99614.56
2023-03-13T07:54:14.268Z,99610.41
2023-03-13T07:56:40.732Z,99616.31
2023-03-13T07:59:07.160Z,99598.50
2023-03-13T08:01:33.841Z,99601.16
2023-03-13T08:04:03.517Z,99603.88
2023-03-13T08:06:33.953Z,99597.28
2023-03-13T08:09:01.391Z,99593.47
2023-03-13T08:11:28.858Z,99598.34
2023-03-13T08:13:56.708Z,99590.94
2023-03-13T08:16:25.612Z,99590.56
2023-03-13T08:18:55.148Z,99592.69
2023-03-13T08:21:32.731Z,99581.16
2023-03-13T08:24:01.470Z,99578.44
2023-03-13T08:26:29.791Z,99585.81
2023-03-13T08:29:01.691Z,99588.44
2023-03-13T08:31:34.882Z,99583.81
2023-03-13T08:34:01.346Z,99582.69
2023-03-13T08:36:31.454Z,99577.22
2023-03-13T08:39:05.017Z,99574.47
2023-03-13T08:41:35.984Z,99579.34
2023-03-13T08:44:03.683Z,99579.16
2023-03-13T08:46:31.418Z,99581.66
2023-03-13T08:48:58.480Z,99587.44
2023-03-13T08:51:27.696Z,99592.69
2023-03-13T08:53:56.052Z,99596.31
2023-03-13T08:56:25.261Z,99584.59
2023-03-13T08:58:59.980Z,99582.16
2023-03-13T09:01:30.472Z,99580.03
2023-03-13T09:03:57.977Z,99583.59
2023-03-13T09:06:24.524Z,99579.34
2023-03-13T09:08:50.964Z,99577.13
2023-03-13T09:11:19.877Z,99572.66
2023-03-13T09:13:48.499Z,99582.78
2023-03-13T09:16:18.344Z,99578.13
2023-03-13T09:18:45.491Z,99569.03
2023-03-13T09:21:17.579Z,99569.03
2023-03-13T09:23:44.597Z,99574.47
2023-03-13T09:26:15.246Z,99575.28
2023-03-13T09:28:42.253Z,99568.44
2023-03-13T09:31:26.874Z,99573.06
2023-03-13T09:33:54.066Z,99559.72
2023-03-13T09:36:22.914Z,99553.34
2023-03-13T09:38:54.810Z,99550.31
2023-03-13T09:41:44.970Z,99552.41
2023-03-13T09:44:26.582Z,99561.13
2023-03-13T09:46:52.968Z,99555.06
2023-03-13T09:49:51.470Z,99554.06
2023-03-13T09:52:26.296Z,99545.22
2023-03-13T09:55:03.097Z,99535.31
2023-03-13T09:57:40.140Z,99538.66
2023-03-13T10:00:14.810Z,99542.50
2023-03-13T10:02:47.786Z,99536.84
2023-03-13T10:05:14.815Z,99543.69
2023-03-13T10:07:41.259Z,99540.06
2023-03-13T10:10:14.966Z,99544.53
2023-03-13T10:12:47.575Z,99533.59
2023-03-13T10:15:43.917Z,99535.41
2023-03-13T10:18:15.645Z,99532.19
2023-03-13T10:20:43.011Z,99523.69
2023-03-13T10:23:33.115Z,99523.69
2023-03-13T10:26:02.506Z,99519.09
2023-03-13T10:28:29.160Z,99518.56
2023-03-13T10:31:08.208Z,99512.69
2023-03-13T10:33:36.953Z,99502.09
2023-03-13T10:36:12.243Z,99500.88
2023-03-13T10:38:56.984Z,99490.31
2023-03-13T10:41:38.588Z,99484.59
2023-03-13T10:44:08.579Z,99485.72
2023-03-13T10:46:40.172Z,99479.31
2023-03-13T10:49:14.985Z,99474.03
2023-03-13T10:51:48.331Z,99474.84
2023-03-13T10:54:21.929Z,99479.19
2023-03-13T10:56:49.687Z,99477.47
2023-03-13T10:59:25.309Z,99477.53
2023-03-13T11:01:53.418Z,99465.97
2023-03-13T11:04:34.915Z,99461.47
2023-03-13T11:07:06.710Z,99455.25
2023-03-13T11:09:33.438Z,99447.69
2023-03-13T11:12:20.413Z,99440.66
2023-03-13T11:14:47.112Z,99434.69
2023-03-13T11:17:32.680Z,99438.53
2023-03-13T11:20:17.690Z,99430.69
2023-03-13T11:22:56.266Z,99423.63
2023-03-13T11:25:39.116Z,99413.34
2023-03-13T11:28:25.205Z,99400.94
2023-03-13T11:31:00.792Z,99411.28
2023-03-13T11:33:57.496Z,99393.56
2023-03-13T11:36:36.384Z,99393.91
2023-03-13T11:39:07.931Z,99376.19
2023-03-13T11:42:10.741Z,99377.78
2023-03-13T11:45:06.686Z,99368.47
2023-03-13T11:47:50.584Z,99357.66
2023-03-13T11:50:26.546Z,99356.22
2023-03-13T11:53:23.814Z,99354.91
2023-03-13T11:56:22.760Z,99342.06
2023-03-13T11:59:01.118Z,99339.59
2023-03-13T12:01:32.375Z,99327.75
2023-03-13T12:04:07.197Z,99326.97
2023-03-13T12:06:52.472Z,99318.28
2023-03-13T12:09:26.086Z,99316.50
2023-03-13T12:11:59.554Z,99309.41
2023-03-13T12:14:31.404Z,99310.72
2023-03-13T12:17:10.755Z,99323.97
2023-03-13T12:19:49.253Z,99316.84
2023-03-13T12:22:28.737Z,99311.69
2023-03-13T12:25:21.301Z,99311.44
2023-03-13T12:27:55.135Z,99302.34
2023-03-13T12:30:33.715Z,99318.03
2023-03-13T12:33:29.795Z,99288.44
2023-03-13T12:36:22.636Z,99288.13
2023-03-13T12:39:05.341Z,99284.72
2023-03-13T12:41:41.943Z,99285.56
2023-03-13T12:44:15.204Z,99260.66
2023-03-13T12:46:46.401Z,99267.09
2023-03-13T12:49:40.056Z,99249.19
2023-03-13T12:52:24.599Z,99257.53
2023-03-13T12:54:54.080Z,99229.34
2023-03-13T12:58:02.312Z,99234.31
2023-03-13T13:00:31.391Z,99235.00
2023-03-13T13:03:28.887Z,99230.41
2023-03-13T13:06:15.612Z,99243.31
2023-03-13T13:09:07.696Z,99223.59
2023-03-13T13:11:34.198Z,99203.78
2023-03-13T13:14:16.958Z,99215.63
2023-03-13T13:16:46.573Z,99212.97
2023-03-13T13:19:25.027Z,99241.34
2023-03-13T13:22:28.995Z,99222.25
2023-03-13T13:25:00.603Z,99216.50
2023-03-13T13:27:32.904Z,99212.19
2023-03-13T13:30:01.560Z,99212.28
2023-03-13T13:32:32.673Z,99213.34
2023-03-13T13:35:06.449Z,99201.81
2023-03-13T13:37:33.751Z,99199.25
2023-03-13T13:40:31.315Z,99194.38
2023-03-13T13:42:57.645Z,99204.72
2023-03-13T13:45:36.716Z,99196.69
2023-03-13T13:48:43.100Z,99182.47
2023-03-13T13:51:14.013Z,99187.22
2023-03-13T13:53:48.461Z,99183.72
2023-03-13T13:56:42.696Z,99181.19
2023-03-13T13:59:21.302Z,99175.75
2023-03-13T14:01:50.862Z,99173.97
2023-03-13T14:04:30.038Z,99159.41
2023-03-13T14:07:04.223Z,99150.41
2023-03-13T14:09:43.660Z,99144.59
2023-03-13T14:12:28.312Z,99140.59
2023-03-13T14:15:19.917Z,99146.66
2023-03-13T14:18:00.369Z,99126.75
2023-03-13T14:20:38.383Z,99119.88
2023-03-13T14:23:10.429Z,99102.09
2023-03-13T14:25:45.380Z,99114.84
2023-03-13T14:28:23.839Z,99110.38
2023-03-13T14:30:52.827Z,99098.28
2023-03-13T14:33:19.711Z,99107.31
2023-03-13T14:35:47.617Z,99103.03
2023-03-13T14:38:19.904Z,99094.31
2023-03-13T14:40:46.735Z,99102.28
2023-03-13T14:43:41.715Z,99091.88
2023-03-13T14:46:25.045Z,99090.00
2023-03-13T14:48:54.574Z,99082.97
2023-03-13T14:51:25.394Z,99095.97
2023-03-13T14:54:00.272Z,99066.16
2023-03-13T14:56:35.500Z,99078.28
2023-03-13T14:59:17.669Z,99067.31
2023-03-13T15:01:45.262Z,99085.03
2023-03-13T15:04:12.087Z,99054.41
2023-03-13T15:06:38.533Z,99058.28
2023-03-13T15:09:18.379Z,99058.47
2023-03-13T15:11:55.193Z,99024.44
2023-03-13T15:14:43.672Z,99028.94
2023-03-13T15:17:17.465Z,99017.97
2023-03-13T15:19:48.317Z,99018.25
2023-03-13T15:22:16.252Z,99017.97
2023-03-13T15:24:46.778Z,99012.50
2023-03-13T15:27:22.229Z,99013.03
2023-03-13T15:29:48.939Z,98999.19
2023-03-13T15:32:30.843Z,98990.16
2023-03-13T15:35:01.916Z,98981.78
2023-03-13T15:37:29.394Z,99002.59
2023-03-13T15:39:57.060Z,98990.50
2023-03-13T15:42:24.479Z,98980.44
2023-03-13T15:44:50.833Z,98986.41
2023-03-13T15:47:21.877Z,98984.03
2023-03-13T15:49:48.555Z,98970.50
2023-03-13T15:52:19.357Z,98964.22
2023-03-13T15:54:46.673Z,98972.22
2023-03-13T15:57:19.822Z,98967.69
2023-03-13T15:59:46.175Z,98955.91
2023-03-13T16:02:19.152Z,98948.75
2023-03-13T16:04:45.866Z,98951.06
2023-03-13T16:07:13.624Z,98952.47
2023-03-13T16:09:41.415Z,98951.34
2023-03-13T16:12:08.470Z,98935.53
2023-03-13T16:14:35.384Z,98941.59
2023-03-13T16:17:03.057Z,98947.72
2023-03-13T16:19:30.583Z,98941.53
2023-03-13T16:21:56.893Z,98930.09
2023-03-13T16:24:23.261Z,98929.28
2023-03-13T16:26:50.134Z,98911.22
2023-03-13T16:29:16.681Z,98918.66
2023-03-13T16:31:53.950Z,98906.06
2023-03-13T16:34:20.284Z,98892.22
2023-03-13T16:36:46.729Z,98892.22
2023-03-13T16:39:15.477Z,98897.56
2023-03-13T16:41:42.100Z,98889.28
2023-03-13T16:44:08.639Z,98877.94
2023-03-13T16:46:37.658Z,98891.38
2023-03-13T16:49:05.272Z,98889.31
2023-03-13T16:51:31.902Z,98894.47
2023-03-13T16:54:03.576Z,98896.91
2023-03-13T16:56:31.131Z,98897.88
2023-03-13T16:58:58.361Z,98914.53
2023-03-13T17:01:25.988Z,98920.19
2023-03-13T17:03:52.844Z,98917.91
2023-03-13T17:06:23.002Z,98927.75
2023-03-13T17:08:49.786Z,98925.19
2023-03-13T17:11:19.274Z,98923.00
2023-03-13T17:13:47.872Z,98935.75
2023-03-13T17:16:24.625Z,98933.81
2023-03-13T17:18:53.409Z,98919.16
2023-03-13T17:21:24.625Z,98923.84
2023-03-13T17:23:51.811Z,98912.28
2023-03-13T17:26:22.933Z,98903.22
2023-03-13T17:28:52.191Z,98905.97
2023-03-13T17:31:19.774Z,98906.97
2023-03-13T17:33:46.757Z,98884.78
2023-03-13T17:36:24.715Z,98872.50
2023-03-13T17:38:58.206Z,98883.47
2023-03-13T17:41:27.514Z,98903.75
2023-03-13T17:43:54.090Z,98903.97
2023-03-13T17:46:39.354Z,98887.72
2023-03-13T17:49:07.628Z,98878.34
2023-03-13T17:51:35.870Z,98879.66
2023-03-13T17:54:02.989Z,98849.91
2023-03-13T17:56:37.339Z,98856.16
2023-03-13T17:59:04.218Z,98880.72
2023-03-13T18:01:32.844Z,98882.00
2023-03-13T18:03:59.611Z,98877.38
2023-03-13T18:06:31.582Z,98901.25
2023-03-13T18:09:02.980Z,98894.47
2023-03-13T18:11:29.614Z,98891.41
2023-03-13T18:13:56.028Z,98898.34
2023-03-13T18:16:38.125Z,98893.50
2023-03-13T18:19:07.276Z,98889.00
2023-03-13T18:21:34.328Z,98882.25
2023-03-13T18:24:01.017Z,98882.56
2023-03-13T18:26:31.384Z,98895.94
2023-03-13T18:29:00.273Z,98893.22
2023-03-13T18:31:31.897Z,98905.13
2023-03-13T18:33:59.437Z,98916.88
2023-03-13T18:36:27.693Z,98911.41
2023-03-13T18:38:54.834Z,98912.84
2023-03-13T18:41:21.556Z,98914.31
2023-03-13T18:43:48.195Z,98898.53
2023-03-13T18:46:35.682Z,98893.56
2023-03-13T18:49:02.091Z,98904.34
2023-03-13T18:51:28.846Z,98903.50
2023-03-13T18:53:56.039Z,98909.31
2023-03-13T18:56:22.388Z,98904.16
2023-03-13T18:58:50.835Z,98905.94
2023-03-13T19:01:22.572Z,98903.06
2023-03-13T19:03:49.662Z,98897.59
2023-03-13T19:06:25.045Z,98895.31
2023-03-13T19:08:53.957Z,98883.44
2023-03-13T19:11:23.719Z,98882.63
2023-03-13T19:13:50.166Z,98881.81
2023-03-13T19:16:20.320Z,98895.19
2023-03-13T19:18:48.050Z,98886.03
2023-03-13T19:21:25.540Z,98873.00
2023-03-13T19:23:52.988Z,98867.03
2023-03-13T19:26:24.480Z,98836.47
2023-03-13T19:28:51.049Z,98823.78
2023-03-13T19:31:18.682Z,98820.88
2023-03-13T19:33:46.368Z,98807.41
2023-03-13T19:36:17.809Z,98804.31
2023-03-13T19:38:45.211Z,98781.53
2023-03-13T19:41:13.044Z,98784.59
2023-03-13T19:43:39.932Z,98780.75
2023-03-13T19:46:20.802Z,98784.25
2023-03-13T19:48:47.669Z,98784.25
2023-03-13T19:51:14.860Z,98787.00
2023-03-13T19:53:41.507Z,98779.31
2023-03-13T19:56:28.656Z,98789.13
2023-03-13T19:59:04.102Z,98797.94
2023-03-13T20:01:31.689Z,98797.16
2023-03-13T20:03:58.523Z,98797.31
2023-03-13T20:06:30.476Z,98806.94
2023-03-13T20:09:02.382Z,98811.56
2023-03-13T20:11:29.914Z,98819.13
2023-03-13T20:13:56.796Z,98828.75
2023-03-13T20:16:25.675Z,98833.53
2023-03-13T20:18:55.249Z,98843.34
2023-03-13T20:21:22.416Z,98835.31
2023-03-13T20:23:50.621Z,98831.91
2023-03-13T20:26:18.798Z,98831.91
2023-03-13T20:28:47.405Z,98824.03
2023-03-13T20:31:15.264Z,98824.22
2023-03-13T20:33:42.095Z,98820.38
2023-03-13T20:36:11.264Z,98816.81
2023-03-13T20:38:39.052Z,98818.41
2023-03-13T20:41:06.406Z,98806.19
2023-03-13T20:43:34.024Z,98796.88
2023-03-13T20:46:00.538Z,98800.06
2023-03-13T20:48:27.224Z,98802.63
2023-03-13T20:50:56.117Z,98803.91
2023-03-13T20:53:24.863Z,98815.44
2023-03-13T20:55:52.620Z,98818.94
2023-03-13T20:58:22.677Z,98809.16
2023-03-13T21:00:49.439Z,98811.53
2023-03-13T21:03:17.577Z,98810.91
2023-03-13T21:05:44.560Z,98815.72
2023-03-13T21:08:11.521Z,98810.06
2023-03-13T21:10:39.357Z,98809.28
2023-03-13T21:13:06.035Z,98821.81
2023-03-13T21:15:32.755Z,98821.81
2023-03-13T21:17:59.846Z,98810.72
2023-03-13T21:20:27.537Z,98802.50
2023-03-13T21:22:54.131Z,98781.94
2023-03-13T21:25:21.139Z,98766.22
2023-03-13T21:27:47.585Z,98770.06
2023-03-13T21:30:18.018Z,98752.22
2023-03-13T21:32:45.262Z,98730.13
2023-03-13T21:35:13.186Z,98741.81
2023-03-13T21:37:40.768Z,98762.94
2023-03-13T21:40:08.887Z,98774.00
2023-03-13T21:42:36.130Z,98806.53
2023-03-13T21:45:04.642Z,98825.69
2023-03-13T21:47:31.648Z,98832.38
2023-03-13T21:50:00.550Z,98821.75
2023-03-13T21:52:27.940Z,98817.53
2023-03-13T21:54:54.432Z,98829.44
2023-03-13T21:57:20.791Z,98831.66
2023-03-13T21:59:47.236Z,98820.75
2023-03-13T22:02:14.084Z,98820.28
2023-03-13T22:04:40.608Z,98834.69
2023-03-13T22:07:07.031Z,98830.88
2023-03-13T22:09:33.690Z,98848.00
2023-03-13T22:12:00.096Z,98848.00
2023-03-13T22:14:27.917Z,98857.28
2023-03-13T22:16:54.552Z,98868.56
2023-03-13T22:19:20.925Z,98873.50
2023-03-13T22:21:47.414Z,98859.28
2023-03-13T22:24:13.848Z,98854.34
2023-03-13T22:26:40.475Z,98857.66
2023-03-13T22:29:06.898Z,98864.22
2023-03-13T22:31:33.348Z,98837.41
2023-03-13T22:33:59.700Z,98832.25
2023-03-13T22:36:26.125Z,98823.41
2023-03-13T22:38:52.531Z,98818.72
2023-03-13T22:41:19.386Z,98818.09
2023-03-13T22:43:45.826Z,98811.97
2023-03-13T22:46:12.948Z,98816.22
2023-03-13T22:48:40.109Z,98805.97
2023-03-13T22:51:08.820Z,98801.13
2023-03-13T22:53:37.506Z,98813.81
2023-03-13T22:56:04.306Z,98805.16
2023-03-13T22:58:30.829Z,98791.66
2023-03-13T23:00:57.239Z,98779.16
2023-03-13T23:03:23.685Z,98790.69
2023-03-13T23:05:50.152Z,98775.38
2023-03-13T23:08:17.052Z,98786.56
2023-03-13T23:10:45.352Z,98804.13
2023-03-13T23:13:12.747Z,98789.13
2023-03-13T23:15:55.388Z,98795.28
2023-03-13T23:18:26.683Z,98793.97
2023-03-13T23:20:53.975Z,98816.94
2023-03-13T23:23:20.721Z,98822.59
2023-03-13T23:25:47.211Z,98808.69
2023-03-13T23:28:13.654Z,98782.09
2023-03-13T23:30:40.086Z,98762.72
2023-03-13T23:33:06.484Z,98747.38
2023-03-13T23:35:36.768Z,98758.47
2023-03-13T23:38:03.490Z,98751.44
2023-03-13T23:40:30.234Z,98757.06
2023-03-13T23:42:56.667Z,98751.44
2023-03-13T23:45:23.057Z,98753.03
2023-03-13T23:47:52.795Z,98761.69
2023-03-13T23:50:19.906Z,98756.13
2023-03-13T23:52:46.446Z,98751.00
2023-03-13T23:55:14.938Z,98750.78
2023-03-13T23:57:41.388Z,98730.66
